createdAt,value
2022-11-12T00:01:00.311Z,15.70
2022-11-12T00:04:04.889Z,17.30
2022-11-12T00:07:08.028Z,44.50
2022-11-12T00:10:11.779Z,32.90
2022-11-12T00:13:15.079Z,18.40
2022-11-12T00:16:18.201Z,13.07
2022-11-12T00:19:22.698Z,14.70
2022-11-12T00:22:25.894Z,16.63
2022-11-12T00:25:29.092Z,24.13
2022-11-12T00:28:37.378Z,23.40
2022-11-12T00:31:41.235Z,22.90
2022-11-12T00:34:45.740Z,18.90
2022-11-12T00:37:48.846Z,17.27
2022-11-12T00:40:51.960Z,12.97
2022-11-12T00:43:55.025Z,10.83
2022-11-12T00:46:58.220Z,14.30
2022-11-12T00:50:02.711Z,12.43
2022-11-12T00:53:05.809Z,10.90
2022-11-12T00:56:09.608Z,10.83
2022-11-12T00:59:13.240Z,13.67
2022-11-12T01:02:16.314Z,11.83
2022-11-12T01:05:21.278Z,11.70
2022-11-12T01:08:25.056Z,13.60
2022-11-12T01:11:30.411Z,15.80
2022-11-12T01:14:33.597Z,14.60
2022-11-12T01:17:36.716Z,12.87
2022-11-12T01:20:41.354Z,12.10
2022-11-12T01:23:44.632Z,14.97
2022-11-12T01:26:48.674Z,12.07
2022-11-12T01:29:51.792Z,12.50
2022-11-12T01:32:54.915Z,12.10
2022-11-12T01:36:01.363Z,15.90
2022-11-12T01:39:06.065Z,10.03
2022-11-12T01:42:09.205Z,11.23
2022-11-12T01:45:16.665Z,14.73
2022-11-12T01:48:28.208Z,12.97
2022-11-12T01:51:37.379Z,9.73
2022-11-12T01:54:42.058Z,10.20
2022-11-12T01:57:52.774Z,13.53
2022-11-12T02:00:55.910Z,9.80
2022-11-12T02:03:59.581Z,8.00
2022-11-12T02:07:04.777Z,8.43
2022-11-12T02:10:10.307Z,8.03
2022-11-12T02:13:30.755Z,8.53
2022-11-12T02:16:36.152Z,11.10
2022-11-12T02:19:39.419Z,6.97
2022-11-12T02:22:43.998Z,8.10
2022-11-12T02:25:47.145Z,9.33
2022-11-12T02:28:50.215Z,11.87
2022-11-12T02:31:53.336Z,6.60
2022-11-12T02:34:56.416Z,7.57
2022-11-12T02:38:00.955Z,7.13
2022-11-12T02:41:04.062Z,8.43
2022-11-12T02:44:07.173Z,5.90
2022-11-12T02:47:10.388Z,6.87
2022-11-12T02:50:13.744Z,7.07
2022-11-12T02:53:18.256Z,8.70
2022-11-12T02:56:21.356Z,7.67
2022-11-12T02:59:24.465Z,5.80
2022-11-12T03:02:27.673Z,8.37
2022-11-12T03:05:32.590Z,5.83
2022-11-12T03:08:37.088Z,7.00
2022-11-12T03:11:40.235Z,7.13
2022-11-12T03:14:43.335Z,7.43
2022-11-12T03:17:46.442Z,9.67
2022-11-12T03:20:52.914Z,7.13
2022-11-12T03:23:57.430Z,7.10
2022-11-12T03:27:00.575Z,6.17
2022-11-12T03:30:04.443Z,6.77
2022-11-12T03:33:09.160Z,6.93
2022-11-12T03:36:12.824Z,6.97
2022-11-12T03:39:17.289Z,7.70
2022-11-12T03:42:20.462Z,7.00
2022-11-12T03:45:26.073Z,8.43
2022-11-12T03:48:29.433Z,7.83
2022-11-12T03:51:32.625Z,12.00
2022-11-12T03:54:37.098Z,10.47
2022-11-12T03:57:40.389Z,9.70
2022-11-12T04:00:43.724Z,12.00
2022-11-12T04:03:46.865Z,9.07
2022-11-12T04:07:06.961Z,9.43
2022-11-12T04:10:11.647Z,10.33
2022-11-12T04:13:29.938Z,11.60
2022-11-12T04:16:55.831Z,9.83
2022-11-12T04:20:16.425Z,10.80
2022-11-12T04:23:19.542Z,7.50
2022-11-12T04:26:25.983Z,7.80
2022-11-12T04:29:46.560Z,7.40
2022-11-12T04:32:52.945Z,8.23
2022-11-12T04:35:56.024Z,7.10
2022-11-12T04:38:59.093Z,7.23
2022-11-12T04:42:21.323Z,9.40
2022-11-12T04:45:24.735Z,5.57
2022-11-12T04:48:28.420Z,4.67
2022-11-12T04:51:49.008Z,5.33
2022-11-12T04:54:52.717Z,4.57
2022-11-12T04:58:00.640Z,6.80
2022-11-12T05:01:04.269Z,5.23
2022-11-12T05:04:07.449Z,5.57
2022-11-12T05:07:11.091Z,6.83
2022-11-12T05:10:14.341Z,5.90
2022-11-12T05:13:18.799Z,6.10
2022-11-12T05:16:21.887Z,4.90
2022-11-12T05:19:24.993Z,5.70
2022-11-12T05:22:43.384Z,5.13
2022-11-12T05:25:48.929Z,5.00
2022-11-12T05:28:53.379Z,6.80
2022-11-12T05:31:56.563Z,9.33
2022-11-12T05:34:59.638Z,7.77
2022-11-12T05:38:02.704Z,8.53
2022-11-12T05:41:05.931Z,7.80
2022-11-12T05:44:10.841Z,6.30
2022-11-12T05:47:13.924Z,5.90
2022-11-12T05:50:17.166Z,5.23
2022-11-12T05:53:20.273Z,5.93
2022-11-12T05:56:23.473Z,5.20
2022-11-12T05:59:27.909Z,6.10
2022-11-12T06:02:31.029Z,8.17
2022-11-12T06:05:34.431Z,6.23
2022-11-12T06:08:37.570Z,4.90
2022-11-12T06:11:40.739Z,5.57
2022-11-12T06:14:45.203Z,4.63
2022-11-12T06:17:48.382Z,6.53
2022-11-12T06:21:05.723Z,7.40
2022-11-12T06:24:09.163Z,6.33
2022-11-12T06:27:12.247Z,6.87
2022-11-12T06:30:17.515Z,6.63
2022-11-12T06:33:21.255Z,6.20
2022-11-12T06:36:24.609Z,7.50
2022-11-12T06:39:27.735Z,5.53
2022-11-12T06:42:30.828Z,4.73
2022-11-12T06:45:35.373Z,10.40
2022-11-12T06:48:38.434Z,7.63
2022-11-12T06:51:41.609Z,6.20
2022-11-12T06:54:44.996Z,7.83
2022-11-12T06:57:52.928Z,4.47
2022-11-12T07:00:57.454Z,5.43
2022-11-12T07:04:00.591Z,6.10
2022-11-12T07:07:06.768Z,5.50
2022-11-12T07:10:13.414Z,6.30
2022-11-12T07:13:16.527Z,5.43
2022-11-12T07:16:22.423Z,6.93
2022-11-12T07:19:25.586Z,6.13
2022-11-12T07:22:28.706Z,6.50
2022-11-12T07:25:31.915Z,6.67
2022-11-12T07:28:35.101Z,9.60
2022-11-12T07:31:39.574Z,6.03
2022-11-12T07:34:42.662Z,6.73
2022-11-12T07:37:45.750Z,7.60
2022-11-12T07:40:48.902Z,6.73
2022-11-12T07:43:54.002Z,6.80
2022-11-12T07:46:58.489Z,6.50
2022-11-12T07:50:01.632Z,6.70
2022-11-12T07:53:04.752Z,6.23
2022-11-12T07:56:08.243Z,6.10
2022-11-12T07:59:11.333Z,8.47
2022-11-12T08:02:15.802Z,7.80
2022-11-12T08:05:21.386Z,6.50
2022-11-12T08:08:25.094Z,7.60
2022-11-12T08:11:28.895Z,6.53
2022-11-12T08:14:31.992Z,7.93
2022-11-12T08:17:39.603Z,8.53
2022-11-12T08:20:43.010Z,7.43
2022-11-12T08:23:46.787Z,7.60
2022-11-12T08:26:49.893Z,7.73
2022-11-12T08:29:52.996Z,7.63
2022-11-12T08:33:02.028Z,6.20
2022-11-12T08:36:06.309Z,7.10
2022-11-12T08:39:10.099Z,6.10
2022-11-12T08:42:13.223Z,6.07
2022-11-12T08:45:16.429Z,7.07
2022-11-12T08:48:20.951Z,5.87
2022-11-12T08:51:24.048Z,7.47
2022-11-12T08:54:27.156Z,5.77
2022-11-12T08:57:30.260Z,6.87
2022-11-12T09:00:35.309Z,5.97
2022-11-12T09:03:39.763Z,6.80
2022-11-12T09:06:42.911Z,6.70
2022-11-12T09:09:46.044Z,7.77
2022-11-12T09:12:52.754Z,9.10
2022-11-12T09:16:00.355Z,5.50
2022-11-12T09:19:04.851Z,6.40
2022-11-12T09:22:08.277Z,7.67
2022-11-12T09:25:11.639Z,6.27
2022-11-12T09:28:16.587Z,6.80
2022-11-12T09:31:19.673Z,7.60
2022-11-12T09:34:24.223Z,5.40
2022-11-12T09:37:27.337Z,5.67
2022-11-12T09:40:44.525Z,4.10
2022-11-12T09:43:51.280Z,4.93
2022-11-12T09:46:59.585Z,4.07
2022-11-12T09:50:15.321Z,4.40
2022-11-12T09:53:23.961Z,4.43
2022-11-12T09:56:29.912Z,4.50
2022-11-12T09:59:34.397Z,4.80
2022-11-12T10:02:43.908Z,4.50
2022-11-12T10:05:53.543Z,5.03
2022-11-12T10:09:02.216Z,4.20
2022-11-12T10:12:29.486Z,4.75
2022-11-12T10:16:04.702Z,4.28
2022-11-12T10:19:27.202Z,4.30
2022-11-12T10:23:02.146Z,3.53
2022-11-12T10:26:13.118Z,13.02
2022-11-12T10:29:25.995Z,14.43
2022-11-12T10:32:29.288Z,14.60
2022-11-12T10:35:32.459Z,15.90
2022-11-12T10:38:38.851Z,14.80
2022-11-12T10:41:41.928Z,14.00
2022-11-12T10:44:45.924Z,14.67
2022-11-12T10:47:49.052Z,14.03
2022-11-12T10:50:52.297Z,14.07
2022-11-12T10:53:56.978Z,13.87
2022-11-12T10:57:19.970Z,13.07
2022-11-12T11:00:23.885Z,14.87
2022-11-12T11:03:28.556Z,14.27
2022-11-12T11:06:31.789Z,13.00
2022-11-12T11:09:36.649Z,12.50
2022-11-12T11:12:39.854Z,12.40
2022-11-12T11:15:58.024Z,13.13
2022-11-12T11:19:04.007Z,13.37
2022-11-12T11:22:31.764Z,14.10
2022-11-12T11:25:37.929Z,14.73
2022-11-12T11:28:47.751Z,14.80
2022-11-12T11:32:01.763Z,15.60
2022-11-12T11:35:15.476Z,13.70
2022-11-12T11:38:33.114Z,12.60
2022-11-12T11:41:48.981Z,13.20
2022-11-12T11:45:00.969Z,12.70
2022-11-12T11:48:14.092Z,13.77
2022-11-12T11:51:35.500Z,11.87
2022-11-12T11:55:01.191Z,20.83
2022-11-12T11:58:26.327Z,15.17
2022-11-12T12:01:39.161Z,14.00
2022-11-12T12:04:48.474Z,14.57
2022-11-12T12:07:58.665Z,17.53
2022-11-12T12:11:09.387Z,13.47
2022-11-12T12:14:31.698Z,15.20
2022-11-12T12:17:50.035Z,13.43
2022-11-12T12:21:00.084Z,13.00
2022-11-12T12:24:10.432Z,15.50
2022-11-12T12:27:17.420Z,14.67
2022-11-12T12:30:24.852Z,14.73
2022-11-12T12:33:33.607Z,15.23
2022-11-12T12:36:39.914Z,13.80
2022-11-12T12:39:49.715Z,15.53
2022-11-12T12:42:56.135Z,13.10
2022-11-12T12:46:00.895Z,15.17
2022-11-12T12:49:06.256Z,14.33
2022-11-12T12:52:13.844Z,14.73
2022-11-12T12:55:36.756Z,13.33
2022-11-12T12:58:46.075Z,12.07
2022-11-12T13:01:58.363Z,12.43
2022-11-12T13:05:01.506Z,13.00
2022-11-12T13:08:07.283Z,14.13
2022-11-12T13:11:10.601Z,13.27
2022-11-12T13:14:51.255Z,13.43
2022-11-12T13:17:55.735Z,23.07
2022-11-12T13:21:11.551Z,19.27
2022-11-12T13:24:15.603Z,18.60
2022-11-12T13:27:57.315Z,13.93
2022-11-12T13:31:03.031Z,16.37
2022-11-12T13:34:19.898Z,20.43
2022-11-12T13:37:24.602Z,14.33
2022-11-12T13:40:42.437Z,13.57
2022-11-12T13:43:48.332Z,12.70
2022-11-12T13:46:53.692Z,11.77
2022-11-12T13:50:02.615Z,12.23
2022-11-12T13:53:09.899Z,13.43
2022-11-12T13:56:14.375Z,11.57
2022-11-12T13:59:19.681Z,12.77
2022-11-12T14:02:26.122Z,13.47
2022-11-12T14:05:33.388Z,12.87
2022-11-12T14:08:57.240Z,10.40
2022-11-12T14:12:17.013Z,12.30
2022-11-12T14:15:42.922Z,11.40
2022-11-12T14:19:10.926Z,10.60
2022-11-12T14:22:18.413Z,10.03
2022-11-12T14:25:24.190Z,10.67
2022-11-12T14:28:30.282Z,11.30
2022-11-12T14:31:33.744Z,8.70
2022-11-12T14:34:36.858Z,10.77
2022-11-12T14:37:43.975Z,8.60
2022-11-12T14:40:52.294Z,8.37
2022-11-12T14:44:11.421Z,8.83
2022-11-12T14:47:19.138Z,9.70
2022-11-12T14:50:26.178Z,8.67
2022-11-12T14:53:33.850Z,12.13
2022-11-12T14:56:41.490Z,9.07
2022-11-12T14:59:44.947Z,8.20
2022-11-12T15:02:57.869Z,12.10
2022-11-12T15:06:11.154Z,10.30
2022-11-12T15:09:21.745Z,15.60
2022-11-12T15:12:27.759Z,16.70
2022-11-12T15:15:32.281Z,15.13
2022-11-12T15:18:36.615Z,15.77
2022-11-12T15:21:46.807Z,24.23
2022-11-12T15:24:51.878Z,23.60
2022-11-12T15:27:55.201Z,17.50
2022-11-12T15:31:03.083Z,12.30
2022-11-12T15:34:27.291Z,10.47
2022-11-12T15:37:33.727Z,11.33
2022-11-12T15:40:45.666Z,14.10
2022-11-12T15:43:48.787Z,9.57
2022-11-12T15:46:52.904Z,14.70
2022-11-12T15:49:58.828Z,10.30
2022-11-12T15:53:02.078Z,14.97
2022-11-12T15:56:09.939Z,17.00
2022-11-12T15:59:16.824Z,17.20
2022-11-12T16:02:19.984Z,11.40
2022-11-12T16:05:23.085Z,12.73
2022-11-12T16:08:26.260Z,10.07
2022-11-12T16:11:36.624Z,10.70
2022-11-12T16:14:40.072Z,16.17
2022-11-12T16:17:43.238Z,11.37
2022-11-12T16:20:47.231Z,13.50
2022-11-12T16:23:50.327Z,12.00
2022-11-12T16:26:55.276Z,12.77
2022-11-12T16:29:58.486Z,12.13
2022-11-12T16:33:02.579Z,12.70
2022-11-12T16:36:14.056Z,10.23
2022-11-12T16:39:17.185Z,9.63
2022-11-12T16:42:21.648Z,10.40
2022-11-12T16:45:35.876Z,10.17
2022-11-12T16:48:39.404Z,12.20
2022-11-12T16:51:43.101Z,12.07
2022-11-12T16:54:46.222Z,16.43
2022-11-12T16:57:51.099Z,10.70
2022-11-12T17:00:54.258Z,11.37
2022-11-12T17:03:58.713Z,11.37
2022-11-12T17:07:02.591Z,14.73
2022-11-12T17:10:06.971Z,14.73
2022-11-12T17:13:14.511Z,15.47
2022-11-12T17:16:18.172Z,15.90
2022-11-12T17:19:22.453Z,16.97
2022-11-12T17:22:26.072Z,13.30
2022-11-12T17:25:29.731Z,12.93
2022-11-12T17:28:34.765Z,16.10
2022-11-12T17:31:38.141Z,15.07
2022-11-12T17:34:41.681Z,11.43
2022-11-12T17:37:45.283Z,13.83
2022-11-12T17:40:48.661Z,11.20
2022-11-12T17:43:58.915Z,15.33
2022-11-12T17:47:03.568Z,12.07
2022-11-12T17:50:08.241Z,11.83
2022-11-12T17:53:12.242Z,12.90
2022-11-12T17:56:19.118Z,13.17
2022-11-12T17:59:25.213Z,10.60
2022-11-12T18:02:30.337Z,12.00
2022-11-12T18:05:33.650Z,12.67
2022-11-12T18:08:37.165Z,14.60
2022-11-12T18:11:45.370Z,12.37
2022-11-12T18:14:53.863Z,14.53
2022-11-12T18:17:57.377Z,12.90
2022-11-12T18:21:01.197Z,12.93
2022-11-12T18:24:05.186Z,13.37
2022-11-12T18:27:09.761Z,13.87
2022-11-12T18:30:19.310Z,14.93
2022-11-12T18:33:24.392Z,17.47
2022-11-12T18:36:28.995Z,17.20
2022-11-12T18:39:32.830Z,13.40
2022-11-12T18:42:36.567Z,13.07
2022-11-12T18:45:41.585Z,15.17
2022-11-12T18:48:47.753Z,17.17
2022-11-12T18:51:52.947Z,14.27
2022-11-12T18:54:56.842Z,14.43
2022-11-12T18:58:00.397Z,13.17
2022-11-12T19:01:07.318Z,14.97
2022-11-12T19:04:12.897Z,14.77
2022-11-12T19:07:17.812Z,12.53
2022-11-12T19:10:21.339Z,15.93
2022-11-12T19:13:24.986Z,14.13
2022-11-12T19:16:30.664Z,15.60
2022-11-12T19:19:39.229Z,17.20
2022-11-12T19:22:42.673Z,13.77
2022-11-12T19:25:49.480Z,14.47
2022-11-12T19:28:53.589Z,13.87
2022-11-12T19:31:59.067Z,13.67
2022-11-12T19:35:02.411Z,14.03
2022-11-12T19:38:06.043Z,17.60
2022-11-12T19:41:18.712Z,15.60
2022-11-12T19:44:22.299Z,17.67
2022-11-12T19:47:27.978Z,14.87
2022-11-12T19:50:33.453Z,13.73
2022-11-12T19:53:41.411Z,17.20
2022-11-12T19:56:44.858Z,16.57
2022-11-12T19:59:48.606Z,20.53
2022-11-12T20:02:54.054Z,16.00
2022-11-12T20:06:02.742Z,15.90
2022-11-12T20:09:06.294Z,14.60
2022-11-12T20:12:10.572Z,15.73
2022-11-12T20:15:15.038Z,17.27
2022-11-12T20:18:20.644Z,32.43
2022-11-12T20:21:25.364Z,25.47
2022-11-12T20:24:28.835Z,17.83
2022-11-12T20:27:32.595Z,16.57
2022-11-12T20:30:36.165Z,18.50
2022-11-12T20:33:42.633Z,15.23
2022-11-12T20:36:46.731Z,19.27
2022-11-12T20:39:52.316Z,24.93
2022-11-12T20:42:56.977Z,22.27
2022-11-12T20:46:01.561Z,21.80
2022-11-12T20:49:10.416Z,21.23
2022-11-12T20:52:13.750Z,19.20
2022-11-12T20:55:17.332Z,21.83
2022-11-12T20:58:20.539Z,15.83
2022-11-12T21:01:25.389Z,15.53
2022-11-12T21:04:30.472Z,14.37
2022-11-12T21:07:33.972Z,16.00
2022-11-12T21:10:37.122Z,18.40
2022-11-12T21:13:41.111Z,14.10
2022-11-12T21:16:44.866Z,13.43
2022-11-12T21:19:50.240Z,13.13
2022-11-12T21:22:53.745Z,13.10
2022-11-12T21:26:02.829Z,13.80
2022-11-12T21:29:07.176Z,13.80
2022-11-12T21:32:11.139Z,12.47
2022-11-12T21:35:15.761Z,16.07
2022-11-12T21:38:19.249Z,12.13
2022-11-12T21:41:23.994Z,12.87
2022-11-12T21:44:27.285Z,13.77
2022-11-12T21:47:30.460Z,14.30
2022-11-12T21:50:35.208Z,12.97
2022-11-12T21:53:38.465Z,10.40
2022-11-12T21:56:42.122Z,10.80
2022-11-12T21:59:45.362Z,11.47
2022-11-12T22:02:48.520Z,12.53
2022-11-12T22:05:53.027Z,12.10
2022-11-12T22:08:57.471Z,14.20
2022-11-12T22:12:00.634Z,13.27
2022-11-12T22:15:03.757Z,17.90
2022-11-12T22:18:07.150Z,16.73
2022-11-12T22:21:13.577Z,29.10
2022-11-12T22:24:17.934Z,17.77
2022-11-12T22:27:21.118Z,11.03
2022-11-12T22:30:24.326Z,11.13
2022-11-12T22:33:28.167Z,14.20
2022-11-12T22:36:32.986Z,13.90
2022-11-12T22:39:36.090Z,12.40
2022-11-12T22:42:39.190Z,14.37
2022-11-12T22:45:42.321Z,14.20
2022-11-12T22:48:45.822Z,14.60
2022-11-12T22:51:50.338Z,16.07
2022-11-12T22:54:53.424Z,16.20
2022-11-12T22:57:56.500Z,14.20
2022-11-12T23:00:59.690Z,23.43
2022-11-12T23:04:05.017Z,18.97
2022-11-12T23:07:09.583Z,14.13
2022-11-12T23:10:13.136Z,12.43
2022-11-12T23:13:16.207Z,12.37
2022-11-12T23:16:21.816Z,12.30
2022-11-12T23:19:25.103Z,11.47
2022-11-12T23:22:29.623Z,14.70
2022-11-12T23:25:34.976Z,14.50
2022-11-12T23:28:38.587Z,12.97
2022-11-12T23:31:41.661Z,13.60
2022-11-12T23:34:44.742Z,22.80
2022-11-12T23:37:49.253Z,16.87
2022-11-12T23:40:55.833Z,12.60
2022-11-12T23:43:59.537Z,11.27
2022-11-12T23:47:02.677Z,11.50
2022-11-12T23:50:06.631Z,11.27
2022-11-12T23:53:11.136Z,13.43
2022-11-12T23:56:17.573Z,14.60
2022-11-12T23:59:20.826Z,13.77
